CheckWX is a tool to help pilots better visualize weather data.  It is not intended as a substitute for an official pre-flight weather briefing.

01:12:20 UTC

BIAR METAR
Akureyri Airport
Akureyri, Iceland
Current

1 hour ago

BIAR 240000Z 24006KT 150V320 9999 -DZ OVC047 06/M03 Q1001
Observed
Feb-24 @ 00:00 UTC
Wind
  • 240° at 6 KTS
Visibility
10,000+ meters
Flight Rules
VFR
Conditions
Light Drizzle
Cloud Levels
  • Overcast at 4,700' AGL
Temperature
C / 43°F
Dewpoint
-3°C / 27°F
Humidity
53%
Altimeter
29.56" Hg
Pressure
1000.92 hPa
Previous

2 hours ago

BIAR 232300Z VRB06KT 9999 -RA FEW039 OVC047 07/M02 Q0997
Observed
Feb-23 @ 23:00 UTC
Wind
  • Variable at 6 KTS
Visibility
10,000+ meters
Flight Rules
VFR
Conditions
Light Rain
Cloud Levels
  • Few at 3,900' AGL
  • Overcast at 4,700' AGL
Temperature
C / 45°F
Dewpoint
-2°C / 28°F
Humidity
53%
Altimeter
29.44" Hg
Pressure
996.92 hPa
Previous

3 hours ago

BIAR 232200Z 19012KT 170V230 9999 OVC050 06/M03 Q0992
Observed
Feb-23 @ 22:00 UTC
Wind
  • 190° at 12 KTS
Visibility
10,000+ meters
Flight Rules
VFR
Cloud Levels
  • Overcast at 5,000' AGL
Temperature
C / 43°F
Dewpoint
-3°C / 27°F
Humidity
53%
Altimeter
29.29" Hg
Pressure
991.92 hPa